createdAt,value
2019-04-06T00:02:55.572Z,100038.57
2019-04-06T00:08:01.303Z,100044.23
2019-04-06T00:13:06.971Z,100037.71
2019-04-06T00:18:13.659Z,100034.25
2019-04-06T00:23:20.101Z,100038.90
2019-04-06T00:28:26.031Z,100043.75
2019-04-06T00:33:33.096Z,100047.91
2019-04-06T00:38:39.080Z,100048.34
2019-04-06T00:43:45.033Z,100052.70
2019-04-06T00:48:51.596Z,100054.06
2019-04-06T00:53:58.103Z,100051.22
2019-04-06T00:59:03.999Z,100062.02
2019-04-06T01:04:10.299Z,100064.07
2019-04-06T01:09:16.076Z,100063.78
2019-04-06T01:14:22.237Z,100062.94
2019-04-06T01:19:28.023Z,100063.37
2019-04-06T01:24:33.837Z,100071.16
2019-04-06T01:29:39.993Z,100075.06
2019-04-06T01:34:46.577Z,100082.58
2019-04-06T01:39:52.317Z,100079.38
2019-04-06T01:44:58.235Z,100081.41
2019-04-06T01:50:04.383Z,100087.27
2019-04-06T01:55:10.095Z,100087.41
2019-04-06T02:00:16.455Z,100083.85
2019-04-06T02:05:23.372Z,100082.05
2019-04-06T02:10:29.134Z,100076.02
2019-04-06T02:15:34.935Z,100083.77
2019-04-06T02:20:40.738Z,100089.80
2019-04-06T02:25:46.630Z,100078.27
2019-04-06T02:30:57.590Z,100082.13
2019-04-06T02:36:21.190Z,100084.16
2019-04-06T02:41:38.004Z,100084.91
2019-04-06T02:46:44.323Z,100093.03
2019-04-06T02:51:50.631Z,100096.42
2019-04-06T02:56:56.338Z,100098.31
2019-04-06T03:02:01.909Z,100105.84
2019-04-06T03:07:07.838Z,100106.45
2019-04-06T03:12:15.370Z,100096.19
2019-04-06T03:17:21.118Z,100099.28
2019-04-06T03:22:27.286Z,100097.05
2019-04-06T03:27:34.245Z,100092.01
2019-04-06T03:32:40.430Z,100096.77
2019-04-06T03:37:46.826Z,100096.58
2019-04-06T03:42:53.127Z,100090.48
2019-04-06T03:47:59.687Z,100091.30
2019-04-06T03:53:05.316Z,100088.98
2019-04-06T03:58:11.224Z,100090.38
2019-04-06T04:03:16.796Z,100095.69
2019-04-06T04:08:22.433Z,100085.57
2019-04-06T04:13:28.146Z,100091.45
2019-04-06T04:18:33.799Z,100090.09
2019-04-06T04:23:39.683Z,100089.30
2019-04-06T04:28:47.169Z,100087.64
2019-04-06T04:33:52.721Z,100082.64
2019-04-06T04:38:58.364Z,100083.14
2019-04-06T04:44:04.419Z,100083.42
2019-04-06T04:49:10.015Z,100075.55
2019-04-06T04:54:15.651Z,100086.25
2019-04-06T04:59:21.745Z,100095.55
2019-04-06T05:04:27.691Z,100102.14
2019-04-06T05:09:33.474Z,100101.91
2019-04-06T05:15:04.050Z,100102.63
2019-04-06T05:20:10.254Z,100109.89
2019-04-06T05:25:15.983Z,100114.38
2019-04-06T05:30:21.555Z,100121.53
2019-04-06T05:35:27.426Z,100119.37
2019-04-06T05:40:35.045Z,100123.95
2019-04-06T05:45:40.649Z,100139.05
2019-04-06T05:50:46.287Z,100128.23
2019-04-06T05:55:52.433Z,100136.73
2019-04-06T06:00:58.077Z,100143.39
2019-04-06T06:06:05.049Z,100145.06
2019-04-06T06:11:11.091Z,100148.42
2019-04-06T06:16:17.124Z,100144.17
2019-04-06T06:21:22.729Z,100149.52
2019-04-06T06:26:28.295Z,100155.63
2019-04-06T06:31:34.161Z,100154.77
2019-04-06T06:36:39.826Z,100159.92
2019-04-06T06:41:45.744Z,100158.78
2019-04-06T06:46:53.365Z,100165.80
2019-04-06T06:51:59.240Z,100154.89
2019-04-06T06:57:04.975Z,100160.44
2019-04-06T07:02:11.454Z,100167.48
2019-04-06T07:07:17.407Z,100175.19
2019-04-06T07:12:23.066Z,100169.38
2019-04-06T07:17:29.285Z,100183.37
2019-04-06T07:22:35.420Z,100175.03
2019-04-06T07:27:42.241Z,100173.88
2019-04-06T07:32:48.098Z,100177.69
2019-04-06T07:37:55.329Z,100179.00
2019-04-06T07:43:01.277Z,100174.86
2019-04-06T07:48:07.000Z,100179.38
2019-04-06T07:53:13.227Z,100179.58
2019-04-06T07:58:18.968Z,100175.55
2019-04-06T08:03:24.570Z,100174.97
2019-04-06T08:08:30.287Z,100169.13
2019-04-06T08:13:36.418Z,100164.89
2019-04-06T08:18:42.279Z,100165.46
2019-04-06T08:23:48.990Z,100163.85
2019-04-06T08:29:01.929Z,100159.65
2019-04-06T08:34:02.911Z,100161.55
2019-04-06T08:39:10.407Z,100160.34
2019-04-06T08:44:16.778Z,100157.80
2019-04-06T08:49:23.424Z,100160.04
2019-04-06T08:54:29.602Z,100158.69
2019-04-06T08:59:35.811Z,100152.11
2019-04-06T09:04:42.581Z,100163.25
2019-04-06T09:09:48.324Z,100168.12
2019-04-06T09:14:54.447Z,100156.13
2019-04-06T09:20:00.241Z,100154.74
2019-04-06T09:25:07.851Z,100143.58
2019-04-06T09:30:16.006Z,100147.37
2019-04-06T09:35:21.684Z,100142.89
2019-04-06T09:40:28.398Z,100138.52
2019-04-06T09:45:55.086Z,100134.22
2019-04-06T09:51:19.271Z,100130.39
2019-04-06T09:56:32.606Z,100127.63
2019-04-06T10:01:57.584Z,100125.33
2019-04-06T10:07:18.057Z,100118.16
2019-04-06T10:12:25.640Z,100124.52
2019-04-06T10:17:42.610Z,100124.89
2019-04-06T10:22:59.639Z,100115.06
2019-04-06T10:28:13.105Z,100108.61
2019-04-06T10:33:23.456Z,100102.09
2019-04-06T10:38:36.447Z,100099.05
2019-04-06T10:43:43.921Z,100101.39
2019-04-06T10:49:08.002Z,100104.56
2019-04-06T10:54:26.584Z,100092.44
2019-04-06T10:59:39.878Z,100095.94
2019-04-06T11:04:53.353Z,100104.50
2019-04-06T11:10:17.715Z,100104.52
2019-04-06T11:15:37.710Z,100093.91
2019-04-06T11:20:47.963Z,100100.81
2019-04-06T11:25:56.055Z,100093.22
2019-04-06T11:31:13.244Z,100097.75
2019-04-06T11:36:29.072Z,100087.78
2019-04-06T11:41:54.717Z,100093.34
2019-04-06T11:47:21.953Z,100093.34
2019-04-06T11:52:29.467Z,100092.75
2019-04-06T11:57:41.123Z,100090.48
2019-04-06T12:02:48.960Z,100078.38
2019-04-06T12:08:09.674Z,100083.77
2019-04-06T12:13:18.249Z,100075.45
2019-04-06T12:18:25.999Z,100067.17
2019-04-06T12:23:34.877Z,100061.44
2019-04-06T12:28:51.931Z,100052.59
2019-04-06T12:34:14.043Z,100066.78
2019-04-06T12:39:34.021Z,100052.30
2019-04-06T12:44:45.731Z,100046.50
2019-04-06T12:50:12.369Z,100035.68
2019-04-06T12:55:20.657Z,100035.21
2019-04-06T13:00:28.714Z,100031.77
2019-04-06T13:05:36.624Z,100025.62
2019-04-06T13:10:48.673Z,100028.00
2019-04-06T13:15:57.170Z,100020.98
2019-04-06T13:21:21.131Z,100016.95
2019-04-06T13:26:32.370Z,100015.09
2019-04-06T13:31:51.010Z,100017.86
2019-04-06T13:37:03.707Z,100007.02
2019-04-06T13:42:16.336Z,100010.36
2019-04-06T13:47:24.784Z,100005.71
2019-04-06T13:52:49.570Z,100011.06
2019-04-06T13:58:01.703Z,100004.14
2019-04-06T14:03:12.019Z,100000.63
2019-04-06T14:08:32.291Z,99992.79
2019-04-06T14:13:49.407Z,99988.44
2019-04-06T14:19:12.676Z,99998.23
2019-04-06T14:24:31.624Z,99999.50
2019-04-06T14:29:42.098Z,100005.73
2019-04-06T14:35:05.080Z,100007.78
2019-04-06T14:40:30.377Z,100004.90
2019-04-06T14:45:43.360Z,100000.94
2019-04-06T14:51:10.024Z,99999.41
2019-04-06T14:56:23.413Z,100004.60
2019-04-06T15:01:57.138Z,100006.37
2019-04-06T15:07:11.540Z,99999.25
2019-04-06T15:12:20.184Z,99993.16
2019-04-06T15:17:30.190Z,100001.66
2019-04-06T15:22:49.987Z,100002.00
2019-04-06T15:28:09.627Z,100002.78
2019-04-06T15:33:33.739Z,100006.84
2019-04-06T15:38:56.461Z,99997.71
2019-04-06T15:44:12.337Z,99999.50
2019-04-06T15:49:39.638Z,99999.25
2019-04-06T15:54:52.441Z,99997.42
2019-04-06T16:00:19.336Z,99992.90
2019-04-06T16:05:41.253Z,99996.73
2019-04-06T16:10:50.283Z,99993.06
2019-04-06T16:16:04.109Z,99995.62
2019-04-06T16:21:29.350Z,100000.00
2019-04-06T16:26:47.486Z,100005.22
2019-04-06T16:32:10.132Z,100002.11
2019-04-06T16:37:17.909Z,100008.95
2019-04-06T16:42:34.130Z,100007.58
2019-04-06T16:47:49.019Z,100006.44
2019-04-06T16:52:57.899Z,100001.81
2019-04-06T16:58:23.164Z,100001.64
2019-04-06T17:03:50.032Z,100006.68
2019-04-06T17:09:01.863Z,100009.46
2019-04-06T17:14:16.275Z,100008.08
2019-04-06T17:19:34.143Z,100008.49
2019-04-06T17:24:42.505Z,100008.48
2019-04-06T17:29:54.537Z,100006.09
2019-04-06T17:35:07.598Z,100003.08
2019-04-06T17:40:24.623Z,100012.04
2019-04-06T17:45:39.000Z,100011.94
2019-04-06T17:50:49.805Z,100013.23
2019-04-06T17:56:20.105Z,100017.04
2019-04-06T18:01:34.608Z,100029.83
2019-04-06T18:06:52.238Z,100033.42
2019-04-06T18:12:06.620Z,100040.69
2019-04-06T18:17:12.946Z,100049.16
2019-04-06T18:22:20.249Z,100051.61
2019-04-06T18:27:27.463Z,100047.05
2019-04-06T18:32:37.482Z,100058.80
2019-04-06T18:37:48.403Z,100057.68
2019-04-06T18:42:56.228Z,100065.55
2019-04-06T18:48:03.408Z,100060.50
2019-04-06T18:53:10.629Z,100064.95
2019-04-06T18:58:17.166Z,100059.27
2019-04-06T19:03:23.307Z,100056.84
2019-04-06T19:08:30.870Z,100064.06
2019-04-06T19:13:39.105Z,100068.56
2019-04-06T19:18:45.667Z,100069.39
2019-04-06T19:23:53.878Z,100071.27
2019-04-06T19:29:03.770Z,100071.75
2019-04-06T19:34:09.509Z,100067.75
2019-04-06T19:39:17.040Z,100069.54
2019-04-06T19:44:24.908Z,100073.12
2019-04-06T19:49:33.968Z,100068.20
2019-04-06T19:54:41.593Z,100074.83
2019-04-06T19:59:50.353Z,100078.36
2019-04-06T20:04:57.027Z,100078.38
2019-04-06T20:10:07.180Z,100068.63
2019-04-06T20:15:15.456Z,100073.95
2019-04-06T20:20:22.555Z,100062.39
2019-04-06T20:25:29.585Z,100067.28
2019-04-06T20:30:38.615Z,100073.39
2019-04-06T20:35:45.738Z,100072.98
2019-04-06T20:40:52.765Z,100067.56
2019-04-06T20:45:59.644Z,100061.70
2019-04-06T20:51:06.277Z,100066.20
2019-04-06T20:56:14.566Z,100065.05
2019-04-06T21:01:21.189Z,100061.09
2019-04-06T21:06:29.133Z,100065.95
2019-04-06T21:11:35.790Z,100066.38
2019-04-06T21:16:44.553Z,100060.05
2019-04-06T21:21:51.972Z,100065.37
2019-04-06T21:26:58.611Z,100064.36
2019-04-06T21:32:06.348Z,100061.00
2019-04-06T21:37:13.405Z,100059.97
2019-04-06T21:42:20.028Z,100066.29
2019-04-06T21:47:26.235Z,100060.62
2019-04-06T21:52:33.245Z,100060.55
2019-04-06T21:57:41.902Z,100060.05
2019-04-06T22:02:50.157Z,100048.86
2019-04-06T22:07:57.283Z,100053.02
2019-04-06T22:13:04.190Z,100050.62
2019-04-06T22:18:11.538Z,100054.20
2019-04-06T22:23:17.577Z,100049.87
2019-04-06T22:28:24.463Z,100046.48
2019-04-06T22:33:30.690Z,100044.34
2019-04-06T22:38:36.583Z,100039.91
2019-04-06T22:43:43.754Z,100030.48
2019-04-06T22:48:49.966Z,100028.73
2019-04-06T22:53:56.117Z,100027.61
2019-04-06T22:59:03.223Z,100029.11
2019-04-06T23:04:13.413Z,100028.69
2019-04-06T23:09:20.123Z,100032.66
2019-04-06T23:14:27.195Z,100034.19
2019-04-06T23:19:32.962Z,100030.44
2019-04-06T23:24:38.663Z,100027.93
2019-04-06T23:29:44.601Z,100029.72
2019-04-06T23:34:59.430Z,100033.46
2019-04-06T23:39:58.433Z,100030.72
2019-04-06T23:45:07.011Z,100037.21
2019-04-06T23:50:13.578Z,100026.69
2019-04-06T23:55:21.275Z,100035.54
